sensor_id;sensor_type;location;lat;lon;timestamp;temperature;humidity
6429;DHT22;3247;48.946;10.220;2022-10-23T00:01:14;9.20;99.90
6429;DHT22;3247;48.946;10.220;2022-10-23T00:03:40;9.20;99.90
6429;DHT22;3247;48.946;10.220;2022-10-23T00:06:09;9.20;99.90
6429;DHT22;3247;48.946;10.220;2022-10-23T00:08:34;9.20;99.90
6429;DHT22;3247;48.946;10.220;2022-10-23T00:11:00;9.10;99.90
6429;DHT22;3247;48.946;10.220;2022-10-23T00:13:25;9.20;99.90
6429;DHT22;3247;48.946;10.220;2022-10-23T00:15:51;9.20;99.90
6429;DHT22;3247;48.946;10.220;2022-10-23T00:18:16;9.10;99.90
6429;DHT22;3247;48.946;10.220;2022-10-23T00:20:42;9.10;99.90
6429;DHT22;3247;48.946;10.220;2022-10-23T00:23:07;9.10;99.90
6429;DHT22;3247;48.946;10.220;2022-10-23T00:25:39;9.10;99.90
6429;DHT22;3247;48.946;10.220;2022-10-23T00:28:04;9.00;99.90
6429;DHT22;3247;48.946;10.220;2022-10-23T00:30:30;9.00;99.90
6429;DHT22;3247;48.946;10.220;2022-10-23T00:32:57;8.90;99.90
6429;DHT22;3247;48.946;10.220;2022-10-23T00:35:23;8.80;99.90
6429;DHT22;3247;48.946;10.220;2022-10-23T00:37:48;8.80;99.90
6429;DHT22;3247;48.946;10.220;2022-10-23T00:40:17;8.80;99.90
6429;DHT22;3247;48.946;10.220;2022-10-23T00:42:42;8.70;99.90
6429;DHT22;3247;48.946;10.220;2022-10-23T00:45:19;8.70;99.90
6429;DHT22;3247;48.946;10.220;2022-10-23T00:47:45;8.80;99.90
6429;DHT22;3247;48.946;10.220;2022-10-23T00:50:11;8.80;99.90
6429;DHT22;3247;48.946;10.220;2022-10-23T00:52:39;8.70;99.90
6429;DHT22;3247;48.946;10.220;2022-10-23T00:55:05;8.70;99.90
6429;DHT22;3247;48.946;10.220;2022-10-23T00:57:30;8.80;99.90
6429;DHT22;3247;48.946;10.220;2022-10-23T00:59:56;8.70;99.90
6429;DHT22;3247;48.946;10.220;2022-10-23T01:02:21;8.80;99.90
6429;DHT22;3247;48.946;10.220;2022-10-23T01:04:47;8.80;99.90
6429;DHT22;3247;48.946;10.220;2022-10-23T01:07:21;8.80;99.90
6429;DHT22;3247;48.946;10.220;2022-10-23T01:17:33;8.40;99.90
6429;DHT22;3247;48.946;10.220;2022-10-23T01:20:10;8.40;99.90
6429;DHT22;3247;48.946;10.220;2022-10-23T01:27:51;8.30;99.90
6429;DHT22;3247;48.946;10.220;2022-10-23T01:30:18;8.30;99.90
6429;DHT22;3247;48.946;10.220;2022-10-23T01:35:13;8.20;99.90
6429;DHT22;3247;48.946;10.220;2022-10-23T01:37:48;8.30;99.90
6429;DHT22;3247;48.946;10.220;2022-10-23T01:40:24;8.40;99.90
6429;DHT22;3247;48.946;10.220;2022-10-23T01:42:53;8.40;99.90
6429;DHT22;3247;48.946;10.220;2022-10-23T01:48:02;8.40;99.90
6429;DHT22;3247;48.946;10.220;2022-10-23T01:50:28;8.40;99.90
6429;DHT22;3247;48.946;10.220;2022-10-23T01:52:54;8.40;99.90
6429;DHT22;3247;48.946;10.220;2022-10-23T01:55:20;8.40;99.90
6429;DHT22;3247;48.946;10.220;2022-10-23T01:57:46;8.40;99.90
6429;DHT22;3247;48.946;10.220;2022-10-23T02:00:14;8.40;99.90
6429;DHT22;3247;48.946;10.220;2022-10-23T02:02:40;8.50;99.90
6429;DHT22;3247;48.946;10.220;2022-10-23T02:05:17;8.50;99.90
6429;DHT22;3247;48.946;10.220;2022-10-23T02:07:43;8.60;99.90
6429;DHT22;3247;48.946;10.220;2022-10-23T02:10:09;8.70;99.90
6429;DHT22;3247;48.946;10.220;2022-10-23T02:15:11;8.70;99.90
6429;DHT22;3247;48.946;10.220;2022-10-23T02:17:48;8.70;99.90
6429;DHT22;3247;48.946;10.220;2022-10-23T02:22:45;8.80;99.90
6429;DHT22;3247;48.946;10.220;2022-10-23T02:25:14;8.80;99.90
6429;DHT22;3247;48.946;10.220;2022-10-23T02:27:41;8.80;99.90
6429;DHT22;3247;48.946;10.220;2022-10-23T02:30:09;8.80;99.90
6429;DHT22;3247;48.946;10.220;2022-10-23T02:32:36;8.90;99.90
6429;DHT22;3247;48.946;10.220;2022-10-23T02:35:03;8.80;99.90
6429;DHT22;3247;48.946;10.220;2022-10-23T02:37:28;8.80;99.90
6429;DHT22;3247;48.946;10.220;2022-10-23T02:39:54;8.90;99.90
6429;DHT22;3247;48.946;10.220;2022-10-23T02:42:29;8.90;99.90
6429;DHT22;3247;48.946;10.220;2022-10-23T02:52:33;8.80;99.90
6429;DHT22;3247;48.946;10.220;2022-10-23T02:57:39;8.70;99.90
6429;DHT22;3247;48.946;10.220;2022-10-23T03:00:09;8.70;99.90
6429;DHT22;3247;48.946;10.220;2022-10-23T03:02:55;8.70;99.90
6429;DHT22;3247;48.946;10.220;2022-10-23T03:05:25;8.70;99.90
6429;DHT22;3247;48.946;10.220;2022-10-23T03:07:52;8.60;99.90
6429;DHT22;3247;48.946;10.220;2022-10-23T03:10:19;8.90;99.90
6429;DHT22;3247;48.946;10.220;2022-10-23T03:12:45;8.70;99.90
6429;DHT22;3247;48.946;10.220;2022-10-23T03:15:14;8.70;99.90
6429;DHT22;3247;48.946;10.220;2022-10-23T03:17:41;8.70;99.90
6429;DHT22;3247;48.946;10.220;2022-10-23T03:20:06;8.80;99.90
6429;DHT22;3247;48.946;10.220;2022-10-23T03:22:32;8.80;99.90
6429;DHT22;3247;48.946;10.220;2022-10-23T03:24:57;8.80;99.90
6429;DHT22;3247;48.946;10.220;2022-10-23T03:27:23;8.80;99.90
6429;DHT22;3247;48.946;10.220;2022-10-23T03:29:48;8.80;99.90
6429;DHT22;3247;48.946;10.220;2022-10-23T03:32:14;8.80;99.90
6429;DHT22;3247;48.946;10.220;2022-10-23T03:34:39;8.80;99.90
6429;DHT22;3247;48.946;10.220;2022-10-23T03:37:05;8.80;99.90
6429;DHT22;3247;48.946;10.220;2022-10-23T03:39:30;8.80;99.90
6429;DHT22;3247;48.946;10.220;2022-10-23T03:41:56;8.80;99.90
6429;DHT22;3247;48.946;10.220;2022-10-23T03:44:23;8.80;99.90
6429;DHT22;3247;48.946;10.220;2022-10-23T03:46:48;9.20;99.90
6429;DHT22;3247;48.946;10.220;2022-10-23T03:49:14;8.80;99.90
6429;DHT22;3247;48.946;10.220;2022-10-23T03:51:42;8.90;99.90
6429;DHT22;3247;48.946;10.220;2022-10-23T03:54:19;8.90;99.90
6429;DHT22;3247;48.946;10.220;2022-10-23T03:56:44;8.90;99.90
6429;DHT22;3247;48.946;10.220;2022-10-23T03:59:10;9.00;99.90
6429;DHT22;3247;48.946;10.220;2022-10-23T04:01:35;9.00;99.90
6429;DHT22;3247;48.946;10.220;2022-10-23T04:04:01;9.00;99.90
6429;DHT22;3247;48.946;10.220;2022-10-23T04:06:26;9.00;99.90
6429;DHT22;3247;48.946;10.220;2022-10-23T04:09:16;9.10;99.90
6429;DHT22;3247;48.946;10.220;2022-10-23T04:12:01;9.20;99.90
6429;DHT22;3247;48.946;10.220;2022-10-23T04:14:26;9.30;99.90
6429;DHT22;3247;48.946;10.220;2022-10-23T04:16:52;9.20;99.90
6429;DHT22;3247;48.946;10.220;2022-10-23T04:19:17;9.20;99.90
6429;DHT22;3247;48.946;10.220;2022-10-23T04:21:46;9.10;99.90
6429;DHT22;3247;48.946;10.220;2022-10-23T04:24:21;9.10;99.90
6429;DHT22;3247;48.946;10.220;2022-10-23T04:26:47;9.10;99.90
6429;DHT22;3247;48.946;10.220;2022-10-23T04:29:12;9.20;99.90
6429;DHT22;3247;48.946;10.220;2022-10-23T04:31:41;9.40;99.90
6429;DHT22;3247;48.946;10.220;2022-10-23T04:34:06;9.30;99.90
6429;DHT22;3247;48.946;10.220;2022-10-23T04:36:32;9.30;99.90
6429;DHT22;3247;48.946;10.220;2022-10-23T04:38:57;9.30;99.90
6429;DHT22;3247;48.946;10.220;2022-10-23T04:41:23;9.30;99.90
6429;DHT22;3247;48.946;10.220;2022-10-23T04:43:48;9.40;99.90
6429;DHT22;3247;48.946;10.220;2022-10-23T04:46:17;9.40;99.90
6429;DHT22;3247;48.946;10.220;2022-10-23T04:48:42;9.50;99.90
6429;DHT22;3247;48.946;10.220;2022-10-23T04:51:08;9.40;99.90
6429;DHT22;3247;48.946;10.220;2022-10-23T04:53:33;9.40;99.90
6429;DHT22;3247;48.946;10.220;2022-10-23T04:55:59;9.60;99.90
6429;DHT22;3247;48.946;10.220;2022-10-23T04:58:25;9.40;99.90
6429;DHT22;3247;48.946;10.220;2022-10-23T05:00:51;9.40;99.90
6429;DHT22;3247;48.946;10.220;2022-10-23T05:03:17;9.40;99.90
6429;DHT22;3247;48.946;10.220;2022-10-23T05:05:42;9.40;99.90
6429;DHT22;3247;48.946;10.220;2022-10-23T05:08:08;9.40;99.90
6429;DHT22;3247;48.946;10.220;2022-10-23T05:10:33;9.30;99.90
6429;DHT22;3247;48.946;10.220;2022-10-23T05:12:59;9.30;99.90
6429;DHT22;3247;48.946;10.220;2022-10-23T05:15:25;9.30;99.90
6429;DHT22;3247;48.946;10.220;2022-10-23T05:17:52;9.30;99.90
6429;DHT22;3247;48.946;10.220;2022-10-23T05:20:20;9.20;99.90
6429;DHT22;3247;48.946;10.220;2022-10-23T05:22:48;9.20;99.90
6429;DHT22;3247;48.946;10.220;2022-10-23T05:25:15;9.10;99.90
6429;DHT22;3247;48.946;10.220;2022-10-23T05:27:41;9.10;99.90
6429;DHT22;3247;48.946;10.220;2022-10-23T05:30:06;9.10;99.90
6429;DHT22;3247;48.946;10.220;2022-10-23T05:32:32;9.00;99.90
6429;DHT22;3247;48.946;10.220;2022-10-23T05:35:02;8.90;99.90
6429;DHT22;3247;48.946;10.220;2022-10-23T05:37:31;8.90;99.90
6429;DHT22;3247;48.946;10.220;2022-10-23T05:39:56;8.90;99.90
6429;DHT22;3247;48.946;10.220;2022-10-23T05:42:22;8.90;99.90
6429;DHT22;3247;48.946;10.220;2022-10-23T05:44:47;8.90;99.90
6429;DHT22;3247;48.946;10.220;2022-10-23T05:47:16;8.90;99.90
6429;DHT22;3247;48.946;10.220;2022-10-23T05:49:41;8.90;99.90
6429;DHT22;3247;48.946;10.220;2022-10-23T05:52:09;8.90;99.90
6429;DHT22;3247;48.946;10.220;2022-10-23T05:54:34;9.00;99.90
6429;DHT22;3247;48.946;10.220;2022-10-23T05:57:00;9.00;99.90
6429;DHT22;3247;48.946;10.220;2022-10-23T05:59:25;9.10;99.90
6429;DHT22;3247;48.946;10.220;2022-10-23T06:01:51;9.10;99.90
6429;DHT22;3247;48.946;10.220;2022-10-23T06:04:17;9.20;99.90
6429;DHT22;3247;48.946;10.220;2022-10-23T06:06:44;9.20;99.90
6429;DHT22;3247;48.946;10.220;2022-10-23T06:09:09;9.10;99.90
6429;DHT22;3247;48.946;10.220;2022-10-23T06:11:34;9.20;99.90
6429;DHT22;3247;48.946;10.220;2022-10-23T06:14:00;9.10;99.90
6429;DHT22;3247;48.946;10.220;2022-10-23T06:16:25;9.10;99.90
6429;DHT22;3247;48.946;10.220;2022-10-23T06:18:51;9.10;99.90
6429;DHT22;3247;48.946;10.220;2022-10-23T06:21:16;9.20;99.90
6429;DHT22;3247;48.946;10.220;2022-10-23T06:23:43;9.20;99.90
6429;DHT22;3247;48.946;10.220;2022-10-23T06:26:09;9.40;99.90
6429;DHT22;3247;48.946;10.220;2022-10-23T06:28:35;9.50;99.90
6429;DHT22;3247;48.946;10.220;2022-10-23T06:31:07;9.60;99.90
6429;DHT22;3247;48.946;10.220;2022-10-23T06:33:33;9.70;99.90
6429;DHT22;3247;48.946;10.220;2022-10-23T06:35:58;9.70;99.90
6429;DHT22;3247;48.946;10.220;2022-10-23T06:38:24;9.70;99.90
6429;DHT22;3247;48.946;10.220;2022-10-23T06:40:53;9.80;99.90
6429;DHT22;3247;48.946;10.220;2022-10-23T06:43:18;9.80;99.90
6429;DHT22;3247;48.946;10.220;2022-10-23T06:45:44;9.90;99.90
6429;DHT22;3247;48.946;10.220;2022-10-23T06:48:09;10.00;99.90
6429;DHT22;3247;48.946;10.220;2022-10-23T06:50:35;10.00;99.90
6429;DHT22;3247;48.946;10.220;2022-10-23T06:53:01;10.10;99.90
6429;DHT22;3247;48.946;10.220;2022-10-23T06:55:28;10.10;99.90
6429;DHT22;3247;48.946;10.220;2022-10-23T06:57:54;10.20;99.90
6429;DHT22;3247;48.946;10.220;2022-10-23T07:00:19;10.20;99.90
6429;DHT22;3247;48.946;10.220;2022-10-23T07:02:45;10.40;99.90
6429;DHT22;3247;48.946;10.220;2022-10-23T07:05:11;11.10;99.90
6429;DHT22;3247;48.946;10.220;2022-10-23T07:07:36;10.50;99.90
6429;DHT22;3247;48.946;10.220;2022-10-23T07:10:02;10.60;99.90
6429;DHT22;3247;48.946;10.220;2022-10-23T07:12:28;10.70;99.90
6429;DHT22;3247;48.946;10.220;2022-10-23T07:14:53;10.70;99.90
6429;DHT22;3247;48.946;10.220;2022-10-23T07:17:19;10.70;99.90
6429;DHT22;3247;48.946;10.220;2022-10-23T07:19:47;10.90;99.90
6429;DHT22;3247;48.946;10.220;2022-10-23T07:22:13;11.00;99.90
6429;DHT22;3247;48.946;10.220;2022-10-23T07:24:44;11.20;99.90
6429;DHT22;3247;48.946;10.220;2022-10-23T07:27:10;11.30;99.90
6429;DHT22;3247;48.946;10.220;2022-10-23T07:29:35;11.30;99.90
6429;DHT22;3247;48.946;10.220;2022-10-23T07:32:01;11.40;99.90
6429;DHT22;3247;48.946;10.220;2022-10-23T07:34:26;11.50;99.90
6429;DHT22;3247;48.946;10.220;2022-10-23T07:36:52;11.60;99.90
6429;DHT22;3247;48.946;10.220;2022-10-23T07:39:19;11.60;99.90
6429;DHT22;3247;48.946;10.220;2022-10-23T07:41:47;11.60;99.90
6429;DHT22;3247;48.946;10.220;2022-10-23T07:44:12;11.70;99.90
6429;DHT22;3247;48.946;10.220;2022-10-23T07:46:37;11.90;99.90
6429;DHT22;3247;48.946;10.220;2022-10-23T07:49:03;12.20;99.90
6429;DHT22;3247;48.946;10.220;2022-10-23T07:51:28;12.40;99.90
6429;DHT22;3247;48.946;10.220;2022-10-23T07:53:59;12.60;99.90
6429;DHT22;3247;48.946;10.220;2022-10-23T07:56:25;12.70;99.90
6429;DHT22;3247;48.946;10.220;2022-10-23T07:58:54;12.90;99.90
6429;DHT22;3247;48.946;10.220;2022-10-23T08:01:26;13.20;99.90
6429;DHT22;3247;48.946;10.220;2022-10-23T08:03:52;13.40;99.90
6429;DHT22;3247;48.946;10.220;2022-10-23T08:06:18;13.50;99.90
6429;DHT22;3247;48.946;10.220;2022-10-23T08:08:46;13.60;99.90
6429;DHT22;3247;48.946;10.220;2022-10-23T08:11:12;13.60;99.90
6429;DHT22;3247;48.946;10.220;2022-10-23T08:13:39;13.90;99.90
6429;DHT22;3247;48.946;10.220;2022-10-23T08:16:05;13.90;99.90
6429;DHT22;3247;48.946;10.220;2022-10-23T08:18:30;14.00;99.90
6429;DHT22;3247;48.946;10.220;2022-10-23T08:20:59;13.90;99.90
6429;DHT22;3247;48.946;10.220;2022-10-23T08:23:26;13.90;99.90
6429;DHT22;3247;48.946;10.220;2022-10-23T08:25:55;14.20;99.90
6429;DHT22;3247;48.946;10.220;2022-10-23T08:28:21;14.10;99.90
6429;DHT22;3247;48.946;10.220;2022-10-23T08:30:47;14.10;99.90
6429;DHT22;3247;48.946;10.220;2022-10-23T08:33:12;14.40;99.90
6429;DHT22;3247;48.946;10.220;2022-10-23T08:35:39;14.70;99.90
6429;DHT22;3247;48.946;10.220;2022-10-23T08:38:05;14.80;99.90
6429;DHT22;3247;48.946;10.220;2022-10-23T08:40:30;14.80;99.90
6429;DHT22;3247;48.946;10.220;2022-10-23T08:46:05;15.40;99.90
6429;DHT22;3247;48.946;10.220;2022-10-23T08:48:24;15.60;99.90
6429;DHT22;3247;48.946;10.220;2022-10-23T08:50:57;15.90;99.90
6429;DHT22;3247;48.946;10.220;2022-10-23T08:53:26;16.00;99.90
6429;DHT22;3247;48.946;10.220;2022-10-23T08:56:00;16.30;99.90
6429;DHT22;3247;48.946;10.220;2022-10-23T09:00:56;16.10;99.90
6429;DHT22;3247;48.946;10.220;2022-10-23T09:03:21;15.60;99.90
6429;DHT22;3247;48.946;10.220;2022-10-23T09:05:53;15.60;99.90
6429;DHT22;3247;48.946;10.220;2022-10-23T09:11:42;15.60;99.90
6429;DHT22;3247;48.946;10.220;2022-10-23T09:19:15;15.30;99.90
6429;DHT22;3247;48.946;10.220;2022-10-23T09:21:47;15.40;99.90
6429;DHT22;3247;48.946;10.220;2022-10-23T09:24:20;15.30;99.90
6429;DHT22;3247;48.946;10.220;2022-10-23T09:26:47;15.30;99.90
6429;DHT22;3247;48.946;10.220;2022-10-23T09:29:33;15.30;99.90
6429;DHT22;3247;48.946;10.220;2022-10-23T09:32:01;15.30;99.90
6429;DHT22;3247;48.946;10.220;2022-10-23T09:34:28;15.20;99.90
6429;DHT22;3247;48.946;10.220;2022-10-23T09:36:59;15.00;99.90
6429;DHT22;3247;48.946;10.220;2022-10-23T09:39:26;15.10;99.90
6429;DHT22;3247;48.946;10.220;2022-10-23T09:41:52;15.40;99.90
6429;DHT22;3247;48.946;10.220;2022-10-23T09:44:19;15.80;99.90
6429;DHT22;3247;48.946;10.220;2022-10-23T09:46:49;15.50;99.90
6429;DHT22;3247;48.946;10.220;2022-10-23T09:51:46;15.50;99.90
6429;DHT22;3247;48.946;10.220;2022-10-23T09:54:18;15.50;99.90
6429;DHT22;3247;48.946;10.220;2022-10-23T09:56:48;15.50;99.90
6429;DHT22;3247;48.946;10.220;2022-10-23T10:01:48;15.50;99.90
6429;DHT22;3247;48.946;10.220;2022-10-23T10:04:13;15.60;99.90
6429;DHT22;3247;48.946;10.220;2022-10-23T10:06:39;15.60;99.90
6429;DHT22;3247;48.946;10.220;2022-10-23T10:09:06;15.70;99.90
6429;DHT22;3247;48.946;10.220;2022-10-23T10:11:40;15.80;99.90
6429;DHT22;3247;48.946;10.220;2022-10-23T10:16:40;16.20;99.90
6429;DHT22;3247;48.946;10.220;2022-10-23T10:21:51;16.30;99.90
6429;DHT22;3247;48.946;10.220;2022-10-23T10:24:38;16.40;99.90
6429;DHT22;3247;48.946;10.220;2022-10-23T10:27:13;16.70;99.90
6429;DHT22;3247;48.946;10.220;2022-10-23T10:34:57;16.90;99.90
6429;DHT22;3247;48.946;10.220;2022-10-23T10:40:24;16.90;99.90
6429;DHT22;3247;48.946;10.220;2022-10-23T10:42:59;17.00;99.90
6429;DHT22;3247;48.946;10.220;2022-10-23T10:45:32;17.10;99.90
6429;DHT22;3247;48.946;10.220;2022-10-23T10:53:13;17.50;99.90
6429;DHT22;3247;48.946;10.220;2022-10-23T10:55:42;17.60;99.90
6429;DHT22;3247;48.946;10.220;2022-10-23T10:58:22;17.60;99.90
6429;DHT22;3247;48.946;10.220;2022-10-23T11:00:57;17.80;99.90
6429;DHT22;3247;48.946;10.220;2022-10-23T11:05:49;18.00;99.90
6429;DHT22;3247;48.946;10.220;2022-10-23T11:08:19;18.20;99.90
6429;DHT22;3247;48.946;10.220;2022-10-23T11:11:32;18.30;99.90
6429;DHT22;3247;48.946;10.220;2022-10-23T11:13:38;18.40;99.90
6429;DHT22;3247;48.946;10.220;2022-10-23T11:16:38;18.60;99.90
6429;DHT22;3247;48.946;10.220;2022-10-23T11:19:59;18.80;99.90
6429;DHT22;3247;48.946;10.220;2022-10-23T11:21:53;19.00;99.90
6429;DHT22;3247;48.946;10.220;2022-10-23T11:32:09;19.10;99.90
6429;DHT22;3247;48.946;10.220;2022-10-23T11:34:40;19.20;99.90
6429;DHT22;3247;48.946;10.220;2022-10-23T11:37:08;19.10;99.90
6429;DHT22;3247;48.946;10.220;2022-10-23T11:39:34;19.10;99.90
6429;DHT22;3247;48.946;10.220;2022-10-23T11:52:32;19.50;99.90
6429;DHT22;3247;48.946;10.220;2022-10-23T11:55:53;19.50;99.90
6429;DHT22;3247;48.946;10.220;2022-10-23T12:00:29;19.60;99.90
6429;DHT22;3247;48.946;10.220;2022-10-23T12:02:55;19.60;99.90
6429;DHT22;3247;48.946;10.220;2022-10-23T12:05:34;19.60;99.90
6429;DHT22;3247;48.946;10.220;2022-10-23T12:08:05;19.60;99.90
6429;DHT22;3247;48.946;10.220;2022-10-23T12:10:35;19.70;99.90
6429;DHT22;3247;48.946;10.220;2022-10-23T12:15:52;19.60;99.90
6429;DHT22;3247;48.946;10.220;2022-10-23T12:18:18;19.60;99.90
6429;DHT22;3247;48.946;10.220;2022-10-23T12:20:51;19.50;99.90
6429;DHT22;3247;48.946;10.220;2022-10-23T12:34:17;19.20;99.90
6429;DHT22;3247;48.946;10.220;2022-10-23T12:36:55;19.20;99.90
6429;DHT22;3247;48.946;10.220;2022-10-23T12:39:24;19.20;99.90
6429;DHT22;3247;48.946;10.220;2022-10-23T12:41:50;19.40;99.90
6429;DHT22;3247;48.946;10.220;2022-10-23T12:44:15;19.50;99.90
6429;DHT22;3247;48.946;10.220;2022-10-23T12:46:41;19.50;99.90
6429;DHT22;3247;48.946;10.220;2022-10-23T12:49:24;19.60;99.90
6429;DHT22;3247;48.946;10.220;2022-10-23T12:51:54;19.60;99.90
6429;DHT22;3247;48.946;10.220;2022-10-23T12:54:20;19.50;99.90
6429;DHT22;3247;48.946;10.220;2022-10-23T12:56:49;19.30;99.90
6429;DHT22;3247;48.946;10.220;2022-10-23T12:59:18;19.30;99.90
6429;DHT22;3247;48.946;10.220;2022-10-23T13:01:45;19.30;99.90
6429;DHT22;3247;48.946;10.220;2022-10-23T13:04:12;19.30;99.90
6429;DHT22;3247;48.946;10.220;2022-10-23T13:06:42;19.20;99.90
6429;DHT22;3247;48.946;10.220;2022-10-23T13:09:13;19.10;99.90
6429;DHT22;3247;48.946;10.220;2022-10-23T13:11:41;19.00;99.90
6429;DHT22;3247;48.946;10.220;2022-10-23T13:14:13;19.20;99.90
6429;DHT22;3247;48.946;10.220;2022-10-23T13:16:38;19.10;99.90
6429;DHT22;3247;48.946;10.220;2022-10-23T13:19:04;19.20;99.90
6429;DHT22;3247;48.946;10.220;2022-10-23T13:21:29;19.30;99.90
6429;DHT22;3247;48.946;10.220;2022-10-23T13:24:00;19.40;99.90
6429;DHT22;3247;48.946;10.220;2022-10-23T13:26:38;19.50;99.90
6429;DHT22;3247;48.946;10.220;2022-10-23T13:29:16;19.70;99.90
6429;DHT22;3247;48.946;10.220;2022-10-23T13:31:43;19.80;99.90
6429;DHT22;3247;48.946;10.220;2022-10-23T13:34:21;19.90;99.90
6429;DHT22;3247;48.946;10.220;2022-10-23T13:36:51;20.00;99.90
6429;DHT22;3247;48.946;10.220;2022-10-23T13:39:20;20.00;99.90
6429;DHT22;3247;48.946;10.220;2022-10-23T13:41:48;19.90;99.90
6429;DHT22;3247;48.946;10.220;2022-10-23T13:44:15;19.80;99.90
6429;DHT22;3247;48.946;10.220;2022-10-23T13:46:40;19.90;99.90
6429;DHT22;3247;48.946;10.220;2022-10-23T13:49:06;19.90;99.90
6429;DHT22;3247;48.946;10.220;2022-10-23T13:51:41;19.80;99.90
6429;DHT22;3247;48.946;10.220;2022-10-23T13:54:12;19.70;99.90
6429;DHT22;3247;48.946;10.220;2022-10-23T13:56:38;19.70;99.90
6429;DHT22;3247;48.946;10.220;2022-10-23T13:59:04;19.80;99.90
6429;DHT22;3247;48.946;10.220;2022-10-23T14:01:31;19.70;99.90
6429;DHT22;3247;48.946;10.220;2022-10-23T14:03:57;19.70;99.90
6429;DHT22;3247;48.946;10.220;2022-10-23T14:06:23;19.70;99.90
6429;DHT22;3247;48.946;10.220;2022-10-23T14:08:49;19.60;99.90
6429;DHT22;3247;48.946;10.220;2022-10-23T14:11:15;19.50;99.90
6429;DHT22;3247;48.946;10.220;2022-10-23T14:13:41;19.40;99.90
6429;DHT22;3247;48.946;10.220;2022-10-23T14:16:07;19.10;99.90
6429;DHT22;3247;48.946;10.220;2022-10-23T14:18:34;18.90;99.90
6429;DHT22;3247;48.946;10.220;2022-10-23T14:21:02;18.80;99.90
6429;DHT22;3247;48.946;10.220;2022-10-23T14:23:28;18.50;99.90
6429;DHT22;3247;48.946;10.220;2022-10-23T14:26:00;18.30;99.90
6429;DHT22;3247;48.946;10.220;2022-10-23T14:28:25;18.00;99.90
6429;DHT22;3247;48.946;10.220;2022-10-23T14:30:51;17.90;99.90
6429;DHT22;3247;48.946;10.220;2022-10-23T14:33:16;17.70;99.90
6429;DHT22;3247;48.946;10.220;2022-10-23T14:35:41;17.70;99.90
6429;DHT22;3247;48.946;10.220;2022-10-23T14:38:07;17.60;99.90
6429;DHT22;3247;48.946;10.220;2022-10-23T14:40:36;17.70;99.90
6429;DHT22;3247;48.946;10.220;2022-10-23T14:43:01;17.70;99.90
6429;DHT22;3247;48.946;10.220;2022-10-23T14:45:27;17.50;99.90
6429;DHT22;3247;48.946;10.220;2022-10-23T14:47:54;17.40;99.90
6429;DHT22;3247;48.946;10.220;2022-10-23T14:50:19;17.40;99.90
6429;DHT22;3247;48.946;10.220;2022-10-23T14:52:45;17.40;99.90
6429;DHT22;3247;48.946;10.220;2022-10-23T14:55:14;17.40;99.90
6429;DHT22;3247;48.946;10.220;2022-10-23T14:57:40;17.30;99.90
6429;DHT22;3247;48.946;10.220;2022-10-23T15:00:05;17.30;99.90
6429;DHT22;3247;48.946;10.220;2022-10-23T15:02:34;17.20;99.90
6429;DHT22;3247;48.946;10.220;2022-10-23T15:04:59;17.20;99.90
6429;DHT22;3247;48.946;10.220;2022-10-23T15:07:25;17.10;99.90
6429;DHT22;3247;48.946;10.220;2022-10-23T15:09:50;17.10;99.90
6429;DHT22;3247;48.946;10.220;2022-10-23T15:12:16;17.00;99.90
6429;DHT22;3247;48.946;10.220;2022-10-23T15:14:42;16.80;99.90
6429;DHT22;3247;48.946;10.220;2022-10-23T15:17:10;16.80;99.90
6429;DHT22;3247;48.946;10.220;2022-10-23T15:19:35;16.80;99.90
6429;DHT22;3247;48.946;10.220;2022-10-23T15:22:01;16.60;99.90
6429;DHT22;3247;48.946;10.220;2022-10-23T15:24:31;16.50;99.90
6429;DHT22;3247;48.946;10.220;2022-10-23T15:26:57;16.40;99.90
6429;DHT22;3247;48.946;10.220;2022-10-23T15:29:24;16.30;99.90
6429;DHT22;3247;48.946;10.220;2022-10-23T15:31:53;16.30;99.90
6429;DHT22;3247;48.946;10.220;2022-10-23T15:34:20;16.20;99.90
6429;DHT22;3247;48.946;10.220;2022-10-23T15:36:46;16.10;99.90
6429;DHT22;3247;48.946;10.220;2022-10-23T15:39:12;15.90;99.90
6429;DHT22;3247;48.946;10.220;2022-10-23T15:41:39;16.10;99.90
6429;DHT22;3247;48.946;10.220;2022-10-23T15:44:05;16.20;99.90
6429;DHT22;3247;48.946;10.220;2022-10-23T15:46:31;16.00;99.90
6429;DHT22;3247;48.946;10.220;2022-10-23T15:48:56;16.00;99.90
6429;DHT22;3247;48.946;10.220;2022-10-23T15:51:23;16.00;99.90
6429;DHT22;3247;48.946;10.220;2022-10-23T15:53:48;15.90;99.90
6429;DHT22;3247;48.946;10.220;2022-10-23T15:56:14;15.70;99.90
6429;DHT22;3247;48.946;10.220;2022-10-23T15:58:40;15.80;99.90
6429;DHT22;3247;48.946;10.220;2022-10-23T16:01:05;15.80;99.90
6429;DHT22;3247;48.946;10.220;2022-10-23T16:03:34;15.80;99.90
6429;DHT22;3247;48.946;10.220;2022-10-23T16:06:04;15.70;99.90
6429;DHT22;3247;48.946;10.220;2022-10-23T16:08:29;15.60;99.90
6429;DHT22;3247;48.946;10.220;2022-10-23T16:10:55;15.60;99.90
6429;DHT22;3247;48.946;10.220;2022-10-23T16:13:20;15.60;99.90
6429;DHT22;3247;48.946;10.220;2022-10-23T16:15:48;15.50;99.90
6429;DHT22;3247;48.946;10.220;2022-10-23T16:18:14;15.40;99.90
6429;DHT22;3247;48.946;10.220;2022-10-23T16:20:42;15.30;99.90
6429;DHT22;3247;48.946;10.220;2022-10-23T16:23:07;15.20;99.90
6429;DHT22;3247;48.946;10.220;2022-10-23T16:25:36;15.20;99.90
6429;DHT22;3247;48.946;10.220;2022-10-23T16:28:05;15.10;99.90
6429;DHT22;3247;48.946;10.220;2022-10-23T16:30:30;15.10;99.90
6429;DHT22;3247;48.946;10.220;2022-10-23T16:32:56;15.10;99.90
6429;DHT22;3247;48.946;10.220;2022-10-23T16:35:21;15.00;99.90
6429;DHT22;3247;48.946;10.220;2022-10-23T16:37:47;14.90;99.90
6429;DHT22;3247;48.946;10.220;2022-10-23T16:40:13;15.00;99.90
6429;DHT22;3247;48.946;10.220;2022-10-23T16:42:38;15.00;99.90
6429;DHT22;3247;48.946;10.220;2022-10-23T16:45:05;15.00;99.90
6429;DHT22;3247;48.946;10.220;2022-10-23T16:47:30;15.00;99.90
6429;DHT22;3247;48.946;10.220;2022-10-23T16:49:56;15.00;99.90
6429;DHT22;3247;48.946;10.220;2022-10-23T16:52:21;14.80;99.90
6429;DHT22;3247;48.946;10.220;2022-10-23T16:54:47;14.90;99.90
6429;DHT22;3247;48.946;10.220;2022-10-23T16:57:15;14.90;99.90
6429;DHT22;3247;48.946;10.220;2022-10-23T16:59:41;14.70;99.90
6429;DHT22;3247;48.946;10.220;2022-10-23T17:02:08;14.90;99.90
6429;DHT22;3247;48.946;10.220;2022-10-23T17:04:34;14.80;99.90
6429;DHT22;3247;48.946;10.220;2022-10-23T17:07:00;14.70;99.90
6429;DHT22;3247;48.946;10.220;2022-10-23T17:09:25;14.70;99.90
6429;DHT22;3247;48.946;10.220;2022-10-23T17:11:56;14.70;99.90
6429;DHT22;3247;48.946;10.220;2022-10-23T17:14:22;14.70;99.90
6429;DHT22;3247;48.946;10.220;2022-10-23T17:16:56;14.70;99.90
6429;DHT22;3247;48.946;10.220;2022-10-23T17:19:22;14.60;99.90
6429;DHT22;3247;48.946;10.220;2022-10-23T17:21:50;14.60;99.90
6429;DHT22;3247;48.946;10.220;2022-10-23T17:24:16;14.60;99.90
6429;DHT22;3247;48.946;10.220;2022-10-23T17:26:42;14.70;99.90
6429;DHT22;3247;48.946;10.220;2022-10-23T17:29:08;14.80;99.90
6429;DHT22;3247;48.946;10.220;2022-10-23T17:31:38;15.00;99.90
6429;DHT22;3247;48.946;10.220;2022-10-23T17:34:06;14.90;99.90
6429;DHT22;3247;48.946;10.220;2022-10-23T17:36:33;15.00;99.90
6429;DHT22;3247;48.946;10.220;2022-10-23T17:38:59;15.10;99.90
6429;DHT22;3247;48.946;10.220;2022-10-23T17:41:25;15.30;99.90
6429;DHT22;3247;48.946;10.220;2022-10-23T17:43:51;15.20;99.90